Time;durP1;ratioP1;P1;durP2;ratioP2;P2;SDS_P1;SDS_P2;PMS_P1;PMS_P2;Temp;Humidity;BMP_temperature;BMP_pressure;BME280_temperature;BME280_humidity;BME280_pressure;Samples;Min_cycle;Max_cycle;Signal;HPM_P1;HPM_P2
2021/12/05 00:17:42;;;;;;;15.25;4.68;;;;;;;2.61;94.23;99804.22;4735887;30;20102;-80
2021/12/05 00:22:39;;;;;;;16.63;5.07;;;;;;;2.61;94.50;99807.59;4735358;30;20123;-78
2021/12/05 00:25:08;;;;;;;15.88;4.65;;;;;;;2.63;94.64;99803.22;4735517;30;20466;-79
2021/12/05 00:27:41;;;;;;;16.67;4.85;;;;;;;2.58;94.18;99793.28;4735471;30;20033;-80
2021/12/05 00:59:17;;;;;;;17.48;4.60;;;;;;;2.20;93.93;99817.94;4735349;30;20039;-80
2021/12/05 01:09:40;;;;;;;16.80;4.22;;;;;;;2.17;95.21;99822.34;4734767;30;20043;-78
2021/12/05 01:12:16;;;;;;;14.00;5.13;;;;;;;2.09;95.38;99801.50;4734968;30;20118;-79
2021/12/05 01:17:46;;;;;;;17.90;5.18;;;;;;;2.14;94.63;99800.38;4734890;30;20127;-85
2021/12/05 01:20:16;;;;;;;13.40;4.40;;;;;;;2.19;94.43;99818.00;4734910;30;20036;-81
2021/12/05 01:22:48;;;;;;;14.98;3.90;;;;;;;2.14;94.31;99828.38;4735049;30;20407;-85
2021/12/05 01:27:55;;;;;;;;;;;;;;;1.98;94.56;99818.06;4735461;30;20036;-85
2021/12/05 01:30:37;;;;;;;21.38;6.07;;;;;;;1.89;95.17;99818.47;4734600;30;19918;-86
2021/12/05 01:38:21;;;;;;;19.27;6.47;;;;;;;1.54;96.08;99801.31;4737595;30;20068;-80
2021/12/05 01:51:27;;;;;;;18.73;5.88;;;;;;;1.31;97.14;99787.03;4718761;30;20046;-79
2021/12/05 02:31:39;;;;;;;17.98;5.40;;;;;;;1.32;98.91;99796.31;4737905;30;20080;-85
2021/12/05 02:34:14;;;;;;;20.00;5.20;;;;;;;1.32;98.82;99806.50;4737559;30;20512;-82
2021/12/05 02:41:44;;;;;;;18.13;5.35;;;;;;;1.12;99.58;99753.91;4737318;30;20045;-85
2021/12/05 02:44:24;;;;;;;18.25;4.50;;;;;;;1.33;99.46;99791.16;4737125;30;20497;-86
2021/12/05 02:47:03;;;;;;;18.15;4.68;;;;;;;1.39;99.26;99793.47;4737258;30;20479;-83
2021/12/05 02:49:32;;;;;;;17.35;4.80;;;;;;;1.32;98.84;99779.34;4736113;30;20033;-85
2021/12/05 02:52:06;;;;;;;18.38;5.15;;;;;;;1.41;99.52;99791.66;4737030;30;20048;-84
2021/12/05 02:54:39;;;;;;;16.98;4.50;;;;;;;1.42;99.27;99787.41;4737252;30;20032;-85
2021/12/05 02:57:07;;;;;;;13.00;4.20;;;;;;;1.47;99.67;99802.47;4749650;30;20032;-85
2021/12/05 03:02:07;;;;;;;13.52;4.45;;;;;;;1.47;99.38;99799.91;4737033;30;20044;-84
2021/12/05 03:04:35;;;;;;;20.42;5.32;;;;;;;1.48;99.41;99804.97;4736865;30;20390;-85
2021/12/05 03:07:05;;;;;;;18.77;5.70;;;;;;;1.34;99.58;99766.56;4736922;30;20082;-84
2021/12/05 03:09:32;;;;;;;19.40;5.38;;;;;;;1.63;99.48;99798.41;4736699;30;20036;-84
2021/12/05 03:11:58;;;;;;;15.95;5.10;;;;;;;1.71;99.30;99799.72;4736420;30;20093;-85
2021/12/05 03:14:24;;;;;;;18.55;5.50;;;;;;;1.80;99.19;99782.41;4736607;30;20028;-84
2021/12/05 03:16:50;;;;;;;15.80;4.90;;;;;;;1.82;98.81;99783.97;4736654;30;20394;-84
2021/12/05 03:19:17;;;;;;;16.25;4.60;;;;;;;1.89;98.35;99787.09;4736782;30;20040;-83
2021/12/05 03:21:44;;;;;;;19.95;4.90;;;;;;;1.97;98.44;99790.13;4736526;30;20047;-82
2021/12/05 03:24:10;;;;;;;17.20;4.78;;;;;;;1.88;98.28;99762.53;4736251;30;20508;-81
2021/12/05 03:26:40;;;;;;;16.48;4.35;;;;;;;2.05;98.16;99787.22;4736263;30;20025;-81
2021/12/05 03:29:07;;;;;;;16.77;5.25;;;;;;;1.93;97.78;99763.97;4736347;30;20029;-81
2021/12/05 03:31:34;;;;;;;20.00;5.20;;;;;;;1.99;97.52;99789.16;4750034;30;20029;-86
2021/12/05 03:34:01;;;;;;;16.20;5.18;;;;;;;1.91;97.69;99782.75;4736384;30;20098;-85
2021/12/05 03:36:27;;;;;;;16.70;4.47;;;;;;;1.67;98.06;99744.78;4736287;30;20041;-80
2021/12/05 03:38:52;;;;;;;16.85;5.10;;;;;;;1.89;98.05;99790.47;4736169;30;20047;-79
2021/12/05 03:41:19;;;;;;;13.77;4.20;;;;;;;1.76;98.18;99775.78;4736394;30;20118;-78
2021/12/05 03:43:48;;;;;;;22.13;5.30;;;;;;;1.69;98.13;99755.72;4735969;30;20048;-81
2021/12/05 03:46:15;;;;;;;15.98;4.95;;;;;;;1.84;98.65;99783.91;4736139;30;20040;-79
2021/12/05 03:48:46;;;;;;;14.88;4.80;;;;;;;1.90;98.21;99787.03;4736093;30;20060;-77
2021/12/05 03:51:14;;;;;;;15.88;5.28;;;;;;;2.02;98.35;99790.75;4736094;30;20037;-79
2021/12/05 03:53:40;;;;;;;14.30;5.80;;;;;;;2.05;98.04;99779.59;4735901;30;20064;-79
2021/12/05 03:56:08;;;;;;;15.98;4.95;;;;;;;1.84;97.88;99753.38;4736081;30;20439;-79
2021/12/05 03:58:35;;;;;;;13.30;5.50;;;;;;;2.10;97.81;99787.88;4735754;30;20119;-79
2021/12/05 04:01:03;;;;;;;17.63;6.10;;;;;;;2.16;97.51;99782.47;4735485;30;20134;-76
2021/12/05 04:03:30;;;;;;;11.43;4.95;;;;;;;1.94;97.65;99745.25;4735824;30;20040;-79
2021/12/05 04:05:56;;;;;;;14.05;5.60;;;;;;;2.12;97.72;99775.88;4735745;30;20040;-79
2021/12/05 04:08:25;;;;;;;11.20;5.18;;;;;;;2.12;97.20;99760.59;4735839;30;20035;-79
2021/12/05 04:10:54;;;;;;;14.77;5.50;;;;;;;2.33;97.15;99797.81;4735660;30;20068;-80
2021/12/05 04:13:20;;;;;;;11.15;5.65;;;;;;;2.32;97.39;99782.63;4735567;30;20091;-78
2021/12/05 04:15:47;;;;;;;14.02;6.00;;;;;;;2.39;97.21;99789.91;4735632;30;20028;-79
2021/12/05 04:18:13;;;;;;;15.05;5.88;;;;;;;2.19;96.82;99759.44;4748548;30;20044;-80
2021/12/05 04:20:38;;;;;;;13.80;7.03;;;;;;;2.36;96.83;99776.47;4719840;30;20101;-79
2021/12/05 04:23:04;;;;;;;14.43;7.05;;;;;;;2.15;97.09;99738.34;4735590;30;20040;-78
2021/12/05 04:25:35;;;;;;;15.48;6.50;;;;;;;2.50;96.91;99792.78;4735500;30;20478;-79
2021/12/05 04:28:00;;;;;;;13.07;6.10;;;;;;;2.51;96.82;99789.34;4735292;30;20498;-78
2021/12/05 04:30:25;;;;;;;15.82;6.60;;;;;;;2.53;96.76;99786.72;4735566;30;20135;-78
2021/12/05 04:32:51;;;;;;;15.30;6.53;;;;;;;2.54;96.31;99784.09;4735499;30;20398;-80
2021/12/05 04:35:17;;;;;;;15.13;6.63;;;;;;;2.58;96.87;99785.63;4735342;30;20382;-79
2021/12/05 04:37:43;;;;;;;11.77;6.28;;;;;;;2.51;96.82;99775.78;4735477;30;20067;-79
2021/12/05 04:40:10;;;;;;;15.27;5.88;;;;;;;2.58;96.74;99788.16;4735348;30;20141;-79
2021/12/05 04:42:36;;;;;;;13.88;6.50;;;;;;;2.47;96.27;99769.19;4735142;30;20035;-80
2021/12/05 04:45:06;;;;;;;15.00;6.88;;;;;;;2.40;96.33;99753.34;4734990;30;20041;-84
2021/12/05 04:47:32;;;;;;;9.90;5.30;;;;;;;2.28;96.54;99731.81;4735298;30;20459;-79
2021/12/05 04:49:57;;;;;;;12.90;6.25;;;;;;;2.56;96.53;99781.50;4734979;30;20037;-79
2021/12/05 04:52:23;;;;;;;12.80;6.10;;;;;;;2.59;96.65;99783.91;4735282;30;20088;-80
2021/12/05 04:54:48;;;;;;;13.63;5.35;;;;;;;2.55;96.83;99775.56;4735228;30;20082;-81
2021/12/05 04:57:14;;;;;;;11.85;5.38;;;;;;;2.40;96.75;99744.88;4735018;30;20083;-79
2021/12/05 04:59:45;;;;;;;12.32;5.72;;;;;;;2.48;96.79;99760.63;4735081;30;20032;-79
2021/12/05 05:02:12;;;;;;;11.07;5.40;;;;;;;2.62;97.12;99788.03;4735112;30;20435;-82
2021/12/05 05:04:44;;;;;;;14.57;5.95;;;;;;;2.60;96.85;99783.00;4734998;30;20123;-80
2021/12/05 05:07:20;;;;;;;12.45;5.00;;;;;;;2.62;96.80;99785.47;4735047;30;20389;-79
2021/12/05 05:09:47;;;;;;;11.90;5.97;;;;;;;2.54;97.08;99775.63;4734793;30;20149;-79
2021/12/05 05:12:13;;;;;;;11.65;5.40;;;;;;;2.45;97.24;99763.31;4734492;30;20028;-79
2021/12/05 05:14:39;;;;;;;13.77;5.35;;;;;;;2.46;97.13;99770.06;4734866;30;20032;-79
2021/12/05 05:17:05;;;;;;;10.30;5.25;;;;;;;2.51;97.62;99776.59;4734658;30;20495;-78
2021/12/05 05:19:36;;;;;;;13.00;5.30;;;;;;;2.63;97.28;99803.22;4735039;30;20398;-80
2021/12/05 05:22:16;;;;;;;12.23;5.25;;;;;;;2.45;97.19;99766.69;4734875;30;20108;-78
2021/12/05 05:43:30;;;;;;;9.95;4.97;;;;;;;2.58;97.80;99816.19;4734700;30;20410;-78
2021/12/05 05:51:08;;;;;;;11.10;5.20;;;;;;;2.61;97.64;99833.06;4734834;30;20080;-78
2021/12/05 05:53:34;;;;;;;11.05;4.60;;;;;;;2.47;97.64;99808.22;4734710;30;20037;-79
2021/12/05 05:56:00;;;;;;;8.80;4.78;;;;;;;2.64;97.61;99829.53;4718727;30;20037;-81
2021/12/05 06:01:20;;;;;;;9.50;3.92;;;;;;;2.51;97.34;99812.28;4709137;30;20049;-83
2021/12/05 06:03:45;;;;;;;;;;;;;;;2.66;97.55;99828.59;4697980;30;20150;-79
2021/12/05 06:06:14;;;;;;;8.80;4.43;;;;;;;2.63;97.27;99833.81;4697822;30;20010;-79
2021/12/05 06:08:41;;;;;;;10.52;4.57;;;;;;;2.63;97.19;99841.47;4697489;30;20034;-79
2021/12/05 06:11:10;;;;;;;7.45;4.10;;;;;;;2.41;97.52;99805.94;4697361;30;20149;-81
2021/12/05 06:13:37;;;;;;;8.07;3.90;;;;;;;2.61;97.32;99843.25;4697513;30;20120;-79
2021/12/05 06:16:04;;;;;;;7.28;3.83;;;;;;;2.33;96.97;99800.38;4697466;30;20026;-79
2021/12/05 06:18:30;;;;;;;5.55;3.05;;;;;;;2.57;96.59;99850.22;4697574;30;20053;-81
2021/12/05 06:20:56;;;;;;;6.15;3.30;;;;;;;2.54;96.22;99850.34;4697672;30;20037;-80
2021/12/05 06:23:22;;;;;;;6.65;2.75;;;;;;;2.34;96.38;99821.56;4684134;30;20044;-79
2021/12/05 06:25:50;;;;;;;5.65;3.10;;;;;;;2.54;96.44;99867.38;4700587;30;20185;-78
2021/12/05 06:28:19;;;;;;;5.80;3.03;;;;;;;2.52;96.22;99869.16;4700596;30;20423;-79
2021/12/05 06:30:53;;;;;;;5.25;3.35;;;;;;;2.51;96.17;99867.50;4700641;30;20149;-79
2021/12/05 06:47:05;;;;;;;6.93;3.60;;;;;;;2.50;96.62;99876.06;4665959;30;20088;-79
2021/12/05 06:49:30;;;;;;;5.57;3.00;;;;;;;2.31;96.31;99848.03;4665928;30;20508;-80
2021/12/05 06:51:56;;;;;;;5.60;3.17;;;;;;;2.49;96.42;99879.50;4665986;30;20052;-80
2021/12/05 06:54:22;;;;;;;7.38;3.25;;;;;;;2.51;96.35;99887.91;4665917;30;20488;-80
2021/12/05 06:56:48;;;;;;;6.40;3.50;;;;;;;2.38;96.06;99869.78;4665585;30;20563;-80
2021/12/05 06:59:14;;;;;;;6.20;3.50;;;;;;;2.44;96.63;99889.88;4665778;30;20062;-79
2021/12/05 07:01:39;;;;;;;5.53;3.63;;;;;;;2.41;96.47;99886.66;4665900;30;20530;-79
2021/12/05 07:04:14;;;;;;;6.53;3.72;;;;;;;2.50;96.79;99907.47;4665407;30;20042;-79
2021/12/05 07:06:41;;;;;;;6.43;3.47;;;;;;;2.12;96.84;99848.00;4665856;30;20064;-80
2021/12/05 07:09:09;;;;;;;7.68;4.07;;;;;;;2.52;96.96;99913.31;4665415;30;20078;-81
2021/12/05 07:17:08;;;;;;;6.90;3.78;;;;;;;2.53;96.85;99925.16;4665622;30;20057;-79
2021/12/05 07:20:35;;;;;;;7.57;4.05;;;;;;;2.55;97.26;99930.19;4665251;30;20117;-80
2021/12/05 07:22:37;;;;;;;5.57;3.85;;;;;;;2.53;96.98;99930.25;4665253;30;20517;-80
2021/12/05 07:25:14;;;;;;;8.48;4.38;;;;;;;2.57;96.73;99929.25;4665437;30;20547;-79
2021/12/05 07:41:28;;;;;;;7.18;4.55;;;;;;;2.67;96.47;99942.41;4665376;30;20084;-83
2021/12/05 07:43:53;;;;;;;7.90;4.22;;;;;;;2.66;96.36;99945.03;4665145;30;20426;-82
2021/12/05 07:46:19;;;;;;;6.90;4.57;;;;;;;2.67;96.84;99949.22;4727690;30;20044;-82
2021/12/05 07:48:46;;;;;;;7.78;4.78;;;;;;;2.50;96.59;99922.75;4735992;30;20382;-79
2021/12/05 07:56:32;;;;;;;9.43;4.93;;;;;;;2.57;96.52;99941.97;4736183;30;20513;-78
2021/12/05 08:15:30;;;;;;;8.40;5.78;;;;;;;2.84;96.78;99973.03;4735757;30;20051;-76
2021/12/05 08:17:58;;;;;;;8.75;5.35;;;;;;;2.83;96.27;99970.56;4735303;30;20028;-80
2021/12/05 08:20:31;;;;;;;9.25;5.82;;;;;;;2.87;96.39;99980.56;4735228;30;20537;-77
2021/12/05 08:23:00;;;;;;;8.95;5.57;;;;;;;2.84;96.56;99967.13;4735373;30;20040;-77
2021/12/05 08:25:28;;;;;;;12.00;6.68;;;;;;;2.94;96.44;99977.72;4735441;30;20029;-77
2021/12/05 08:28:03;;;;;;;10.57;5.93;;;;;;;2.95;96.30;99979.38;4735703;30;20047;-77
2021/12/05 08:30:33;;;;;;;9.25;6.00;;;;;;;2.80;96.28;99948.59;4735561;30;20062;-77
2021/12/05 09:30:26;;;;;;;9.02;6.00;;;;;;;3.30;94.72;100046.69;4646982;30;20528;-85
2021/12/05 10:03:32;;;;;;;10.18;7.78;;;;;;;3.37;94.13;100083.78;4701681;30;20164;-89
2021/12/05 10:13:53;;;;;;;10.52;7.55;;;;;;;3.42;94.31;100109.91;4700921;30;20547;-88
2021/12/05 10:17:32;;;;;;;10.20;7.15;;;;;;;3.58;94.35;100128.75;4700763;30;20116;-85
2021/12/05 10:37:12;;;;;;;11.60;7.80;;;;;;;3.81;93.54;100140.47;4696933;30;20077;-85
2021/12/05 10:39:38;;;;;;;13.00;9.73;;;;;;;3.86;94.12;100147.94;4719482;30;20104;-86
2021/12/05 10:42:37;;;;;;;11.68;8.80;;;;;;;3.88;93.92;100154.63;4719997;30;20068;-80
2021/12/05 10:45:06;;;;;;;11.73;8.27;;;;;;;3.78;93.92;100142.34;4720022;30;20099;-86
2021/12/05 10:47:40;;;;;;;12.95;8.82;;;;;;;3.90;94.15;100154.53;4719997;30;20029;-86
2021/12/05 10:50:29;;;;;;;13.40;8.98;;;;;;;3.94;93.79;100161.19;4719639;30;20074;-86
2021/12/05 10:53:33;;;;;;;12.30;9.43;;;;;;;3.67;93.65;100118.13;4719412;30;20033;-79
2021/12/05 10:56:07;;;;;;;12.82;9.70;;;;;;;3.92;93.60;100158.66;4683121;30;20054;-84
2021/12/05 10:58:43;;;;;;;13.32;10.15;;;;;;;3.91;93.51;100167.22;4682806;30;20121;-85
2021/12/05 11:01:38;;;;;;;12.90;9.50;;;;;;;3.91;93.27;100162.13;4682733;30;20050;-84
2021/12/05 11:04:05;;;;;;;14.77;10.25;;;;;;;3.92;93.57;100158.66;4615356;31;20123;-81
2021/12/05 11:06:38;;;;;;;16.10;10.02;;;;;;;3.90;93.23;100164.75;4615291;31;20519;-84
2021/12/05 11:09:17;;;;;;;23.05;13.95;;;;;;;3.64;93.07;100131.03;4614122;31;20063;-85
2021/12/05 11:11:46;;;;;;;15.98;11.63;;;;;;;3.72;93.61;100151.09;4628907;31;20550;-83
2021/12/05 11:14:15;;;;;;;13.38;10.10;;;;;;;3.82;93.46;100166.81;4631845;31;20425;-86
2021/12/05 11:16:51;;;;;;;11.90;9.57;;;;;;;3.84;92.92;100175.28;4632034;31;20043;-83
2021/12/05 11:19:23;;;;;;;10.43;7.85;;;;;;;3.78;92.49;100181.47;4631988;30;20071;-84
2021/12/05 11:21:55;;;;;;;11.13;8.60;;;;;;;3.72;92.74;100174.06;4631630;31;20043;-82
2021/12/05 11:24:34;;;;;;;11.35;8.88;;;;;;;3.80;92.66;100186.50;4631492;31;20041;-85
2021/12/05 11:27:28;;;;;;;11.75;9.25;;;;;;;3.83;92.50;100192.28;4631600;31;20118;-85
2021/12/05 11:30:17;;;;;;;12.52;8.90;;;;;;;3.84;92.00;100185.50;4631607;31;20087;-85
2021/12/05 11:32:54;;;;;;;13.88;9.80;;;;;;;3.83;92.61;100183.81;4641528;30;20057;-81
2021/12/05 11:35:25;;;;;;;13.15;9.63;;;;;;;3.83;92.32;100181.25;4648320;30;20422;-82
2021/12/05 11:38:02;;;;;;;14.27;9.15;;;;;;;4.03;92.28;100196.50;4648526;30;20039;-84
2021/12/05 11:40:40;;;;;;;14.68;10.73;;;;;;;4.00;91.66;100191.53;4670426;30;20055;-85
2021/12/05 11:43:06;;;;;;;10.90;8.77;;;;;;;4.03;91.36;100196.50;4736487;30;20119;-86
2021/12/05 11:45:59;;;;;;;10.95;7.50;;;;;;;3.91;91.12;100185.13;4736336;30;20064;-87
2021/12/05 11:48:33;;;;;;;10.88;7.45;;;;;;;3.98;90.91;100208.66;4736400;30;20136;-84
2021/12/05 11:51:00;;;;;;;9.68;6.95;;;;;;;3.87;90.38;100193.84;4736024;30;20067;-82
2021/12/05 11:53:34;;;;;;;10.40;6.90;;;;;;;3.99;90.83;100212.88;4736143;30;20114;-84
2021/12/05 11:56:00;;;;;;;9.27;6.47;;;;;;;3.94;89.93;100207.16;4735957;30;20037;-82
2021/12/05 11:58:25;;;;;;;10.05;6.20;;;;;;;3.95;90.18;100208.81;4748981;30;20405;-82
2021/12/05 12:00:51;;;;;;;8.07;6.07;;;;;;;4.00;89.86;100212.78;4736127;30;20029;-84
2021/12/05 12:03:33;;;;;;;9.20;6.53;;;;;;;4.07;90.30;100218.47;4736067;30;20473;-86
2021/12/05 12:05:58;;;;;;;8.43;6.30;;;;;;;4.14;89.72;100221.56;4736038;30;20371;-83
2021/12/05 12:08:24;;;;;;;8.02;5.22;;;;;;;4.16;89.41;100225.72;4735967;30;20111;-86
2021/12/05 12:10:57;;;;;;;9.35;6.22;;;;;;;4.19;89.09;100234.94;4735510;30;20053;-89
2021/12/05 12:13:29;;;;;;;10.50;6.65;;;;;;;4.21;89.85;100228.88;4735798;30;20036;-84
2021/12/05 12:15:59;;;;;;;8.80;6.70;;;;;;;4.21;89.54;100228.88;4735901;30;20033;-81
2021/12/05 12:18:29;;;;;;;12.20;8.63;;;;;;;4.18;89.82;100228.19;4735508;30;20032;-88
2021/12/05 12:20:57;;;;;;;12.43;9.33;;;;;;;4.05;89.85;100215.16;4735709;30;20043;-84
2021/12/05 12:23:23;;;;;;;13.55;9.55;;;;;;;4.15;90.32;100229.16;4735699;30;20372;-83
2021/12/05 12:25:53;;;;;;;11.88;9.38;;;;;;;4.18;90.21;100233.31;4735354;30;20032;-86
2021/12/05 12:28:20;;;;;;;10.13;7.75;;;;;;;4.16;89.72;100230.81;4735561;30;20039;-84
2021/12/05 12:30:57;;;;;;;10.43;7.85;;;;;;;4.20;90.17;100239.16;4735620;30;20076;-86
2021/12/05 12:33:28;;;;;;;11.77;8.43;;;;;;;4.21;89.76;100241.66;4735722;30;20033;-86
2021/12/05 12:35:53;;;;;;;12.03;8.93;;;;;;;4.22;90.14;100247.59;4735885;30;20032;-87
2021/12/05 12:38:24;;;;;;;12.07;8.82;;;;;;;3.98;89.71;100221.44;4735737;30;20074;-85
2021/12/05 12:41:12;;;;;;;12.00;8.80;;;;;;;3.93;89.86;100211.44;4735451;30;20036;-86
2021/12/05 12:43:42;;;;;;;11.25;8.13;;;;;;;4.15;90.12;100259.00;4735276;30;20517;-86
2021/12/05 12:46:31;;;;;;;11.45;8.90;;;;;;;4.15;90.50;100252.16;4735138;30;20047;-86
2021/12/05 12:49:15;;;;;;;12.95;8.85;;;;;;;4.18;90.05;100254.56;4735297;30;20036;-87
2021/12/05 12:51:42;;;;;;;12.55;9.52;;;;;;;4.12;90.17;100257.41;4735421;30;20040;-83
2021/12/05 12:54:17;;;;;;;11.95;9.02;;;;;;;3.57;89.73;100167.94;4735125;30;20087;-86
2021/12/05 12:57:01;;;;;;;12.95;9.18;;;;;;;4.18;89.57;100269.06;4734984;30;20051;-86
2021/12/05 12:59:30;;;;;;;11.73;8.30;;;;;;;4.17;89.84;100264.88;4735139;30;20107;-85
2021/12/05 13:02:25;;;;;;;11.52;8.48;;;;;;;4.06;89.54;100252.59;4735402;30;20067;-85
2021/12/05 13:10:48;;;;;;;11.57;8.68;;;;;;;4.20;89.72;100280.06;4735319;30;20132;-87
2021/12/05 13:13:28;;;;;;;12.25;8.38;;;;;;;4.09;89.57;100275.44;4680708;30;20034;-80
2021/12/05 13:16:18;;;;;;;11.80;8.30;;;;;;;4.15;90.18;100282.00;4681002;30;20042;-84
2021/12/05 13:18:48;;;;;;;11.48;8.25;;;;;;;4.13;89.70;100286.31;4680439;30;20049;-81
2021/12/05 13:21:36;;;;;;;11.52;7.95;;;;;;;4.17;90.64;100281.03;4680827;30;20034;-84
2021/12/05 13:24:41;;;;;;;9.77;7.40;;;;;;;4.02;90.16;100245.94;4681093;30;20084;-77
2021/12/05 13:27:23;;;;;;;9.68;6.95;;;;;;;4.29;90.35;100289.84;4680843;30;20676;-80
2021/12/05 13:29:52;;;;;;;10.20;7.57;;;;;;;4.31;90.07;100280.38;4680569;30;20484;-81
2021/12/05 13:32:24;;;;;;;10.23;7.80;;;;;;;4.40;90.34;100295.31;4681693;30;20191;-79
2021/12/05 13:34:52;;;;;;;8.85;6.93;;;;;;;4.28;89.20;100278.81;4686589;30;20053;-80
2021/12/05 13:37:37;;;;;;;10.05;7.47;;;;;;;4.33;90.22;100296.50;4686499;30;20057;-81
2021/12/05 13:40:22;;;;;;;11.32;7.75;;;;;;;4.37;88.99;100312.53;4686566;30;20135;-81
2021/12/05 13:43:00;;;;;;;9.88;7.05;;;;;;;4.38;89.87;100315.00;4684771;30;20049;-79
2021/12/05 13:45:25;;;;;;;8.70;6.50;;;;;;;4.36;89.73;100318.53;4686518;30;20116;-79
2021/12/05 13:47:53;;;;;;;9.38;6.55;;;;;;;4.16;88.82;100286.22;4686626;30;20126;-81
2021/12/05 13:50:21;;;;;;;9.80;7.20;;;;;;;4.34;89.19;100320.34;4717227;30;20040;-78
2021/12/05 13:52:58;;;;;;;10.75;7.82;;;;;;;4.31;88.91;100321.28;4740208;30;20389;-81
2021/12/05 13:55:49;;;;;;;12.18;7.85;;;;;;;4.27;89.06;100324.88;4724752;30;20474;-82
2021/12/05 13:58:22;;;;;;;9.50;6.72;;;;;;;4.24;89.24;100328.41;4753667;30;20119;-82
2021/12/05 14:01:14;;;;;;;9.23;7.00;;;;;;;4.12;88.72;100316.16;4740426;30;20032;-82
2021/12/05 14:04:10;;;;;;;9.57;6.78;;;;;;;4.16;89.06;100329.66;4740370;30;20029;-83
2021/12/05 14:06:53;;;;;;;11.05;7.47;;;;;;;4.15;89.17;100335.66;4753809;30;20505;-82
2021/12/05 14:09:24;;;;;;;10.23;7.90;;;;;;;4.11;89.08;100329.84;4740620;30;20056;-82
2021/12/05 14:12:13;;;;;;;10.70;8.00;;;;;;;3.97;89.52;100314.31;4740004;30;20147;-83
2021/12/05 14:14:45;;;;;;;9.88;7.32;;;;;;;4.14;89.24;100352.72;4740359;30;20040;-80
2021/12/05 14:17:16;;;;;;;;;;;;;;;4.20;89.81;100357.53;4740842;30;20028;-80
2021/12/05 14:19:48;;;;;;;9.85;7.18;;;;;;;4.18;89.62;100359.34;4740268;30;19918;-79
2021/12/05 14:22:16;;;;;;;9.60;7.40;;;;;;;4.14;89.17;100350.16;4753599;30;20049;-77
2021/12/05 14:24:46;;;;;;;10.18;7.40;;;;;;;4.14;88.86;100372.34;4739887;30;20033;-81
2021/12/05 14:27:15;;;;;;;9.50;7.40;;;;;;;4.12;88.84;100369.81;4740271;30;20033;-80
2021/12/05 14:29:46;;;;;;;10.18;7.40;;;;;;;4.11;88.77;100383.50;4739893;30;20086;-77
2021/12/05 14:32:31;;;;;;;13.13;8.27;;;;;;;4.15;89.42;100390.16;4740182;30;20047;-78
2021/12/05 14:35:09;;;;;;;9.82;7.75;;;;;;;4.13;89.33;100397.06;4740107;30;20032;-77
2021/12/05 14:37:36;;;;;;;11.65;8.57;;;;;;;4.02;89.40;100386.44;4740488;30;20112;-76
2021/12/05 14:40:12;;;;;;;10.65;8.52;;;;;;;4.13;89.79;100411.53;4740071;30;20037;-77
2021/12/05 14:42:41;;;;;;;13.43;9.48;;;;;;;4.16;90.11;100408.88;4740109;30;20036;-79
2021/12/05 14:45:11;;;;;;;11.52;8.40;;;;;;;4.06;90.42;100405.06;4737737;30;20036;-79
2021/12/05 14:47:40;;;;;;;11.82;8.20;;;;;;;4.12;90.41;100426.03;4737512;30;20051;-79
2021/12/05 14:50:11;;;;;;;10.98;7.70;;;;;;;4.09;90.34;100423.63;4737575;30;20203;-78
2021/12/05 14:52:40;;;;;;;9.77;7.68;;;;;;;4.07;90.29;100432.25;4737267;30;20036;-81
2021/12/05 14:55:09;;;;;;;10.25;7.55;;;;;;;4.06;90.49;100433.16;4737330;30;20060;-79
2021/12/05 14:57:42;;;;;;;10.65;7.20;;;;;;;4.07;90.64;100434.81;4737294;30;20372;-76
2021/12/05 15:00:23;;;;;;;10.48;7.60;;;;;;;4.05;91.05;100447.66;4736825;30;20127;-79
2021/12/05 15:02:51;;;;;;;11.98;8.10;;;;;;;4.02;90.44;100452.88;4737009;30;20036;-80
2021/12/05 15:05:19;;;;;;;12.07;8.18;;;;;;;3.95;90.65;100447.22;4721350;30;20039;-78
2021/12/05 15:07:45;;;;;;;10.40;7.57;;;;;;;4.01;91.22;100459.72;4736815;30;20052;-80
2021/12/05 15:10:19;;;;;;;11.00;7.88;;;;;;;3.98;90.94;100461.56;4737025;30;20032;-76
2021/12/05 15:12:44;;;;;;;12.00;7.57;;;;;;;3.98;91.46;100469.25;4736914;30;20041;-77
2021/12/05 15:15:11;;;;;;;10.23;7.93;;;;;;;3.82;91.27;100452.88;4736656;30;20035;-78
2021/12/05 15:17:40;;;;;;;13.38;8.38;;;;;;;3.94;91.92;100478.75;4736925;30;20067;-83
2021/12/05 15:20:19;;;;;;;12.15;8.43;;;;;;;3.94;91.95;100485.59;4736933;30;20028;-79
2021/12/05 15:22:52;;;;;;;11.68;8.60;;;;;;;3.91;91.71;100490.81;4736905;30;20048;-79
2021/12/05 15:25:20;;;;;;;11.95;8.38;;;;;;;3.90;92.05;100491.72;4736547;30;20486;-74
2021/12/05 15:27:47;;;;;;;12.45;8.30;;;;;;;3.78;92.50;100477.72;4736852;30;20032;-79
2021/12/05 15:30:22;;;;;;;11.98;8.38;;;;;;;3.86;92.67;100498.69;4736548;30;20028;-76
2021/12/05 15:33:17;;;;;;;13.07;9.35;;;;;;;3.69;92.43;100471.25;4736483;30;20048;-76
2021/12/05 15:35:44;;;;;;;12.65;8.32;;;;;;;3.78;92.86;100504.97;4736418;30;20478;-76
2021/12/05 15:38:12;;;;;;;11.43;8.50;;;;;;;3.83;92.49;100524.31;4736677;30;20043;-81
2021/12/05 15:40:42;;;;;;;10.82;7.68;;;;;;;3.70;92.72;100502.72;4736400;30;20025;-82
2021/12/05 15:43:21;;;;;;;11.15;7.75;;;;;;;3.53;92.89;100490.63;4749836;30;20033;-77
2021/12/05 15:45:50;;;;;;;10.25;7.82;;;;;;;3.84;92.70;100545.63;4736063;30;20037;-84
2021/12/05 15:48:34;;;;;;;11.43;7.03;;;;;;;3.78;93.06;100526.25;4736119;30;20033;-77
2021/12/05 15:51:03;;;;;;;11.68;7.88;;;;;;;3.83;92.63;100546.47;4736164;30;20131;-74
2021/12/05 15:53:31;;;;;;;10.95;7.43;;;;;;;3.81;92.64;100551.66;4736093;30;20044;-80
2021/12/05 15:56:04;;;;;;;12.15;8.00;;;;;;;3.81;92.75;100543.16;4735352;30;20033;-77
2021/12/05 15:58:32;;;;;;;12.73;7.80;;;;;;;3.78;92.56;100549.22;4736034;30;20025;-76
2021/12/05 16:01:05;;;;;;;10.73;8.10;;;;;;;3.77;92.82;100557.78;4735615;30;20033;-76
2021/12/05 16:03:45;;;;;;;13.25;8.65;;;;;;;3.77;92.93;100562.06;4735762;30;20094;-77
2021/12/05 16:06:14;;;;;;;10.48;8.18;;;;;;;3.76;92.76;100565.50;4735635;30;20041;-78
2021/12/05 16:08:40;;;;;;;10.30;7.68;;;;;;;3.72;92.46;100563.06;4735892;30;20040;-78
2021/12/05 16:11:17;;;;;;;10.52;7.38;;;;;;;3.74;93.60;100574.06;4735636;30;20056;-80
2021/12/05 16:13:45;;;;;;;10.55;7.55;;;;;;;3.53;93.19;100539.13;4735716;30;20048;-77
2021/12/05 16:16:10;;;;;;;12.45;9.13;;;;;;;3.74;92.63;100573.25;4735556;30;20111;-78
2021/12/05 16:18:38;;;;;;;13.00;9.02;;;;;;;3.66;93.10;100560.75;4735413;30;20107;-80
2021/12/05 16:21:15;;;;;;;11.73;8.05;;;;;;;3.70;92.87;100585.28;4735811;30;20025;-82
2021/12/05 16:23:40;;;;;;;11.82;8.15;;;;;;;3.70;92.83;100587.81;4735673;30;20047;-76
2021/12/05 16:26:13;;;;;;;13.30;8.57;;;;;;;3.72;92.96;100596.25;4735362;30;20032;-79
2021/12/05 16:28:41;;;;;;;11.00;8.10;;;;;;;3.73;92.69;100604.75;4735701;30;20073;-75
2021/12/05 16:31:10;;;;;;;10.52;7.72;;;;;;;3.45;93.37;100559.03;4735464;30;20039;-81
2021/12/05 16:33:36;;;;;;;12.13;8.82;;;;;;;3.72;92.77;100611.56;4735235;30;20037;-80
2021/12/05 16:36:03;;;;;;;12.80;8.57;;;;;;;3.71;92.66;100609.91;4735626;30;20029;-79
2021/12/05 16:38:33;;;;;;;12.60;8.13;;;;;;;3.71;92.83;100616.75;4735453;30;20064;-79
2021/12/05 16:41:06;;;;;;;11.90;9.02;;;;;;;3.71;93.38;100621.84;4734929;30;20028;-77
2021/12/05 16:43:35;;;;;;;12.77;9.45;;;;;;;3.71;93.03;100616.75;4735278;30;20032;-76
2021/12/05 16:46:11;;;;;;;13.27;9.35;;;;;;;3.71;92.13;100629.50;4735294;30;20044;-76
2021/12/05 16:48:39;;;;;;;14.18;10.27;;;;;;;3.69;92.76;100623.63;4735114;30;20052;-78
2021/12/05 16:51:20;;;;;;;14.00;10.50;;;;;;;3.59;92.92;100609.56;4735224;30;20037;-78
2021/12/05 16:53:50;;;;;;;18.52;12.48;;;;;;;3.70;93.06;100622.75;4735156;30;20041;-76
2021/12/05 16:56:33;;;;;;;17.35;11.23;;;;;;;3.57;93.07;100608.78;4735386;30;20029;-78
2021/12/05 16:59:28;;;;;;;14.90;10.82;;;;;;;3.71;92.87;100625.22;4734946;30;20096;-77
2021/12/05 17:02:25;;;;;;;14.05;9.85;;;;;;;3.70;92.20;100628.69;4733427;30;20044;-77
2021/12/05 17:05:00;;;;;;;12.52;9.93;;;;;;;3.70;91.84;100632.97;4734769;30;20434;-80
2021/12/05 17:07:44;;;;;;;12.00;8.98;;;;;;;3.72;92.48;100643.94;4734392;30;20094;-77
2021/12/05 17:10:32;;;;;;;11.38;8.68;;;;;;;3.59;92.30;100627.44;4748538;30;20399;-77
2021/12/05 17:13:18;;;;;;;10.48;7.13;;;;;;;3.68;93.03;100652.63;4734491;30;20079;-83
2021/12/05 17:16:08;;;;;;;11.88;7.82;;;;;;;3.67;92.79;100659.44;4734890;30;20044;-75
2021/12/05 17:18:57;;;;;;;12.52;8.23;;;;;;;3.68;92.14;100666.22;4733972;30;20055;-79